createdAt,value
2023-05-29T00:00:44.366Z,102370.41
2023-05-29T00:03:16.687Z,102366.91
2023-05-29T00:05:45.473Z,102369.91
2023-05-29T00:08:16.641Z,102362.88
2023-05-29T00:10:46.010Z,102367.88
2023-05-29T00:13:14.787Z,102355.78
2023-05-29T00:15:43.615Z,102366.34
2023-05-29T00:18:12.296Z,102356.88
2023-05-29T00:20:44.604Z,102369.91
2023-05-29T00:23:13.398Z,102369.06
2023-05-29T00:25:47.479Z,102367.59
2023-05-29T00:28:16.196Z,102371.00
2023-05-29T00:30:44.910Z,102366.84
2023-05-29T00:33:16.046Z,102359.97
2023-05-29T00:35:46.187Z,102381.44
2023-05-29T00:38:17.085Z,102386.25
2023-05-29T00:40:45.994Z,102388.88
2023-05-29T00:43:14.917Z,102390.19
2023-05-29T00:45:43.610Z,102391.75
2023-05-29T00:48:15.106Z,102404.91
2023-05-29T00:50:47.731Z,102405.44
2023-05-29T00:53:16.744Z,102403.97
2023-05-29T00:55:45.591Z,102408.28
2023-05-29T00:58:14.342Z,102398.69
2023-05-29T01:00:44.258Z,102404.69
2023-05-29T01:03:18.201Z,102402.19
2023-05-29T01:05:48.724Z,102401.22
2023-05-29T01:08:17.482Z,102410.84
2023-05-29T01:10:46.586Z,102403.69
2023-05-29T01:13:20.585Z,102412.31
2023-05-29T01:15:56.947Z,102411.53
2023-05-29T01:18:36.744Z,102402.84
2023-05-29T01:21:13.150Z,102418.59
2023-05-29T01:24:00.003Z,102420.34
2023-05-29T01:26:49.236Z,102415.22
2023-05-29T01:29:21.080Z,102422.78
2023-05-29T01:31:52.826Z,102288.66
2023-05-29T01:34:23.861Z,102422.94
2023-05-29T01:36:52.687Z,102416.34
2023-05-29T01:39:25.909Z,102426.41
2023-05-29T01:41:57.212Z,102432.56
2023-05-29T01:44:27.109Z,102437.72
2023-05-29T01:46:56.753Z,102432.06
2023-05-29T01:49:30.545Z,102436.47
2023-05-29T01:52:00.202Z,102436.66
2023-05-29T01:54:31.403Z,102440.91
2023-05-29T01:57:03.518Z,102432.16
2023-05-29T01:59:32.714Z,102444.19
2023-05-29T02:02:07.926Z,102445.19
2023-05-29T02:04:37.189Z,102451.38
2023-05-29T02:07:07.224Z,102442.91
2023-05-29T02:09:39.305Z,102446.66
2023-05-29T02:12:10.137Z,102455.28
2023-05-29T02:14:42.182Z,102453.56
2023-05-29T02:17:12.273Z,102450.06
2023-05-29T02:24:34.591Z,102438.34
2023-05-29T02:27:04.377Z,102426.06
2023-05-29T02:29:34.697Z,102438.22
2023-05-29T02:32:03.952Z,102439.19
2023-05-29T02:34:36.196Z,102443.38
2023-05-29T02:37:05.309Z,102436.69
2023-05-29T02:39:34.431Z,102444.41
2023-05-29T02:42:03.548Z,102436.75
2023-05-29T02:44:32.573Z,102440.41
2023-05-29T02:47:03.055Z,102443.13
2023-05-29T02:49:32.177Z,102447.53
2023-05-29T02:52:01.384Z,102450.81
2023-05-29T02:54:30.457Z,102449.63
2023-05-29T02:56:59.552Z,102443.69
2023-05-29T02:59:28.513Z,102440.31
2023-05-29T03:01:57.619Z,102451.84
2023-05-29T03:04:28.907Z,102448.91
2023-05-29T03:06:58.015Z,102444.66
2023-05-29T03:09:27.091Z,102459.56
2023-05-29T03:11:56.166Z,102452.88
2023-05-29T03:14:25.172Z,102442.34
2023-05-29T03:16:54.701Z,102451.97
2023-05-29T03:19:23.775Z,102448.41
2023-05-29T03:21:54.255Z,102451.88
2023-05-29T03:24:25.928Z,102440.59
2023-05-29T03:26:59.524Z,102451.03
2023-05-29T03:29:28.685Z,102441.69
2023-05-29T03:31:58.580Z,102426.66
2023-05-29T03:34:31.682Z,102451.03
2023-05-29T03:37:04.432Z,102455.78
2023-05-29T03:39:34.787Z,102451.44
2023-05-29T03:42:04.159Z,102456.59
2023-05-29T03:44:33.697Z,102466.16
2023-05-29T03:47:05.169Z,102456.78
2023-05-29T03:49:39.585Z,102453.19
2023-05-29T03:52:10.207Z,102457.69
2023-05-29T03:54:39.339Z,102470.56
2023-05-29T03:57:10.112Z,102461.81
2023-05-29T03:59:43.291Z,102461.47
2023-05-29T04:02:15.098Z,102463.16
2023-05-29T04:04:45.880Z,102464.16
2023-05-29T04:07:18.748Z,102472.91
2023-05-29T04:09:47.976Z,102463.56
2023-05-29T04:12:17.924Z,102469.72
2023-05-29T04:14:46.817Z,102475.47
2023-05-29T04:17:15.950Z,102472.41
2023-05-29T04:19:45.887Z,102474.22
2023-05-29T04:22:17.139Z,102476.66
2023-05-29T04:24:46.086Z,102474.94
2023-05-29T04:27:15.303Z,102480.25
2023-05-29T04:29:44.867Z,102477.78
2023-05-29T04:32:13.934Z,102499.59
2023-05-29T04:34:45.225Z,102480.53
2023-05-29T04:37:18.261Z,102488.47
2023-05-29T04:39:47.219Z,102490.13
2023-05-29T04:42:23.854Z,102494.44
2023-05-29T04:44:53.673Z,102492.25
2023-05-29T04:47:23.588Z,102495.97
2023-05-29T04:49:52.920Z,102502.75
2023-05-29T04:52:25.617Z,102503.44
2023-05-29T04:54:54.688Z,102496.03
2023-05-29T04:57:24.737Z,102496.13
2023-05-29T04:59:54.244Z,102504.03
2023-05-29T05:02:23.297Z,102511.06
2023-05-29T05:04:52.580Z,102501.69
2023-05-29T05:07:21.603Z,102509.38
2023-05-29T05:09:52.184Z,102508.81
2023-05-29T05:12:25.009Z,102509.00
2023-05-29T05:14:54.373Z,102504.72
2023-05-29T05:17:23.496Z,102502.91
2023-05-29T05:19:53.533Z,102502.53
2023-05-29T05:22:22.747Z,102497.69
2023-05-29T05:24:55.676Z,102496.91
2023-05-29T05:32:20.995Z,102508.81
2023-05-29T05:34:56.926Z,102500.13
2023-05-29T05:37:26.066Z,102512.31
2023-05-29T05:40:01.288Z,102508.72
2023-05-29T05:42:31.529Z,102502.72
2023-05-29T05:50:03.491Z,102501.34
2023-05-29T05:52:33.785Z,102519.28
2023-05-29T05:55:05.504Z,102512.47
2023-05-29T05:57:34.677Z,102516.75
2023-05-29T06:00:05.937Z,102523.50
2023-05-29T06:02:46.342Z,102521.47
2023-05-29T06:05:23.812Z,102515.31
2023-05-29T06:07:52.621Z,102521.97
2023-05-29T06:10:22.933Z,102526.06
2023-05-29T06:12:51.915Z,102531.06
2023-05-29T06:15:26.089Z,102516.00
2023-05-29T06:17:56.734Z,102516.44
2023-05-29T06:20:27.610Z,102530.69
2023-05-29T06:22:56.650Z,102527.13
2023-05-29T06:25:34.208Z,102521.59
2023-05-29T06:28:03.493Z,102523.00
2023-05-29T06:30:32.287Z,102520.41
2023-05-29T06:33:01.453Z,102524.97
2023-05-29T06:35:33.547Z,102524.09
2023-05-29T06:38:02.365Z,102531.03
2023-05-29T06:40:35.066Z,102521.38
2023-05-29T06:43:04.244Z,102522.91
2023-05-29T06:45:41.740Z,102526.19
2023-05-29T06:48:11.534Z,102520.81
2023-05-29T06:50:43.892Z,102531.28
2023-05-29T06:53:38.867Z,102529.78
2023-05-29T06:56:10.786Z,102534.16
2023-05-29T06:58:39.576Z,102532.44
2023-05-29T07:01:10.563Z,102532.56
2023-05-29T07:03:45.754Z,102533.84
2023-05-29T07:06:16.955Z,102522.50
2023-05-29T07:08:46.045Z,102533.69
2023-05-29T07:11:16.622Z,102537.75
2023-05-29T07:13:45.600Z,102533.13
2023-05-29T07:16:24.355Z,102534.19
2023-05-29T07:19:02.064Z,102527.84
2023-05-29T07:21:35.316Z,102533.16
2023-05-29T07:24:07.057Z,102536.88
2023-05-29T07:26:39.326Z,102543.84
2023-05-29T07:29:08.222Z,102541.88
2023-05-29T07:31:37.189Z,102547.84
2023-05-29T07:34:06.255Z,102551.88
2023-05-29T07:36:35.040Z,102551.88
2023-05-29T07:39:08.793Z,102558.03
2023-05-29T07:41:39.237Z,102553.22
2023-05-29T07:44:10.063Z,102553.19
2023-05-29T07:46:39.776Z,102568.44
2023-05-29T07:49:34.471Z,102553.94
2023-05-29T07:52:06.759Z,102550.56
2023-05-29T07:54:36.241Z,102545.22
2023-05-29T07:57:10.714Z,102552.50
2023-05-29T07:59:43.518Z,102550.88
2023-05-29T08:02:13.172Z,102548.84
2023-05-29T08:05:14.864Z,102566.34
2023-05-29T08:07:44.836Z,102556.75
2023-05-29T08:10:14.035Z,102568.34
2023-05-29T08:12:44.140Z,102559.41
2023-05-29T08:15:14.506Z,102561.91
2023-05-29T08:17:43.277Z,102566.19
2023-05-29T08:20:14.447Z,102567.09
2023-05-29T08:22:45.712Z,102572.44
2023-05-29T08:25:14.452Z,102578.94
2023-05-29T08:27:44.531Z,102576.66
2023-05-29T08:30:14.808Z,102579.34
2023-05-29T08:32:47.211Z,102578.19
2023-05-29T08:35:15.889Z,102580.44
2023-05-29T08:37:44.664Z,102574.81
2023-05-29T08:40:15.973Z,102568.41
2023-05-29T08:42:49.818Z,102583.31
2023-05-29T08:45:23.810Z,102578.78
2023-05-29T08:47:55.051Z,102582.41
2023-05-29T08:50:24.907Z,102581.50
2023-05-29T08:52:53.820Z,102577.28
2023-05-29T08:55:22.714Z,102577.06
2023-05-29T08:57:53.121Z,102575.94
2023-05-29T09:00:23.481Z,102569.88
2023-05-29T09:02:54.528Z,102570.78
2023-05-29T09:05:23.445Z,102569.22
2023-05-29T09:07:52.178Z,102564.50
2023-05-29T09:10:22.878Z,102587.72
2023-05-29T09:12:53.000Z,102572.91
2023-05-29T09:15:22.993Z,102571.19
2023-05-29T09:17:53.996Z,102576.34
2023-05-29T09:20:25.470Z,102574.63
2023-05-29T09:22:58.696Z,102577.53
2023-05-29T09:25:27.909Z,102580.00
2023-05-29T09:28:03.908Z,102581.34
2023-05-29T09:30:38.862Z,102590.28
2023-05-29T09:33:12.073Z,102585.66
2023-05-29T09:35:41.928Z,102585.22
2023-05-29T09:38:12.718Z,102580.91
2023-05-29T09:40:42.557Z,102579.00
2023-05-29T09:43:13.934Z,102574.97
2023-05-29T09:45:43.600Z,102572.84
2023-05-29T09:48:16.260Z,102572.53
2023-05-29T09:50:46.328Z,102572.16
2023-05-29T09:53:20.287Z,102565.69
2023-05-29T09:55:49.625Z,102567.38
2023-05-29T09:58:20.106Z,102561.50
2023-05-29T10:00:49.719Z,102568.44
2023-05-29T10:03:19.107Z,102563.88
2023-05-29T10:05:51.688Z,102571.69
2023-05-29T10:08:22.337Z,102556.13
2023-05-29T10:10:56.263Z,102541.56
2023-05-29T10:13:30.219Z,102559.34
2023-05-29T10:16:01.199Z,102552.47
2023-05-29T10:18:37.480Z,102554.03
2023-05-29T10:21:08.976Z,102566.41
2023-05-29T10:23:39.699Z,102566.03
2023-05-29T10:26:14.969Z,102566.50
2023-05-29T10:28:48.839Z,102575.63
2023-05-29T10:31:25.647Z,102567.44
2023-05-29T10:34:04.690Z,102554.06
2023-05-29T10:36:38.306Z,102571.91
2023-05-29T10:39:08.898Z,102567.38
2023-05-29T10:41:40.896Z,102555.81
2023-05-29T10:44:42.353Z,102562.06
2023-05-29T10:47:13.665Z,102552.91
2023-05-29T10:49:51.869Z,102554.50
2023-05-29T10:52:21.962Z,102549.28
2023-05-29T10:54:55.993Z,102548.44
2023-05-29T10:57:25.526Z,102546.19
2023-05-29T11:00:14.426Z,102546.00
2023-05-29T11:02:43.947Z,102550.03
2023-05-29T11:05:26.418Z,102541.81
2023-05-29T11:07:58.757Z,102550.97
2023-05-29T11:10:57.508Z,102543.59
2023-05-29T11:13:28.193Z,102546.97
2023-05-29T11:16:15.938Z,102542.75
2023-05-29T11:18:47.283Z,102545.59
2023-05-29T11:21:33.078Z,102541.78
2023-05-29T11:24:07.555Z,102550.25
2023-05-29T11:26:39.893Z,102548.06
2023-05-29T11:29:12.007Z,102553.31
2023-05-29T11:31:42.874Z,102537.66
2023-05-29T11:34:16.475Z,102531.81
2023-05-29T11:36:46.513Z,102544.34
2023-05-29T11:39:17.532Z,102551.75
2023-05-29T11:41:53.277Z,102552.72
2023-05-29T11:44:26.936Z,102550.94
2023-05-29T11:47:04.834Z,102561.91
2023-05-29T11:49:37.362Z,102553.47
2023-05-29T11:54:48.839Z,102558.41
2023-05-29T11:57:22.383Z,102551.25
2023-05-29T11:59:53.866Z,102557.06
2023-05-29T12:02:26.566Z,102561.13
2023-05-29T12:05:02.098Z,102556.47
2023-05-29T12:07:30.886Z,102564.72
2023-05-29T12:09:59.655Z,102559.34
2023-05-29T12:12:30.520Z,102560.03
2023-05-29T12:14:59.748Z,102559.69
2023-05-29T12:17:31.792Z,102549.66
2023-05-29T12:20:00.938Z,102547.50
2023-05-29T12:22:36.382Z,102552.09
2023-05-29T12:25:09.772Z,102542.13
2023-05-29T12:27:43.868Z,102539.19
2023-05-29T12:30:24.227Z,102537.69
2023-05-29T12:33:03.076Z,102542.75
2023-05-29T12:35:32.334Z,102537.34
2023-05-29T12:38:02.364Z,102542.00
2023-05-29T12:40:35.231Z,102541.78
2023-05-29T12:43:06.445Z,102535.47
2023-05-29T12:45:36.229Z,102540.00
2023-05-29T12:48:07.907Z,102533.00
2023-05-29T12:50:38.526Z,102544.97
2023-05-29T12:53:09.028Z,102550.38
2023-05-29T12:55:39.739Z,102544.94
2023-05-29T12:58:09.828Z,102547.91
2023-05-29T13:00:39.985Z,102528.91
2023-05-29T13:03:11.764Z,102543.81
2023-05-29T13:05:40.866Z,102541.13
2023-05-29T13:08:09.674Z,102549.16
2023-05-29T13:10:38.388Z,102543.03
2023-05-29T13:13:07.136Z,102545.72
2023-05-29T13:15:36.089Z,102553.81
2023-05-29T13:18:05.083Z,102557.16
2023-05-29T13:20:35.291Z,102548.06
2023-05-29T13:23:04.007Z,102562.22
2023-05-29T13:25:32.755Z,102551.75
2023-05-29T13:28:01.467Z,102561.81
2023-05-29T13:30:30.274Z,102553.72
2023-05-29T13:32:59.057Z,102555.47
2023-05-29T13:35:27.912Z,102559.16
2023-05-29T13:37:57.931Z,102557.34
2023-05-29T13:40:26.849Z,102554.69
2023-05-29T13:42:55.650Z,102556.44
2023-05-29T13:45:24.306Z,102556.69
2023-05-29T13:47:56.808Z,102546.50
2023-05-29T13:50:26.824Z,102554.56
2023-05-29T13:52:56.983Z,102556.16
2023-05-29T13:55:25.795Z,102553.97
2023-05-29T13:58:00.124Z,102550.50
2023-05-29T14:00:29.038Z,102556.47
2023-05-29T14:02:57.935Z,102549.00
2023-05-29T14:05:27.199Z,102545.50
2023-05-29T14:07:57.282Z,102538.78
2023-05-29T14:10:25.991Z,102538.22
2023-05-29T14:12:56.829Z,102524.53
2023-05-29T14:15:25.554Z,102538.84
2023-05-29T14:17:54.265Z,102534.00
2023-05-29T14:20:23.234Z,102538.28
2023-05-29T14:22:54.640Z,102522.91
2023-05-29T14:25:24.775Z,102531.97
2023-05-29T14:27:55.951Z,102533.50
2023-05-29T14:30:24.947Z,102527.09
2023-05-29T14:32:54.033Z,102516.03
2023-05-29T14:35:22.800Z,102521.88
2023-05-29T14:37:51.548Z,102527.66
2023-05-29T14:40:20.502Z,102528.81
2023-05-29T14:42:50.665Z,102525.53
2023-05-29T14:45:21.630Z,102526.78
2023-05-29T14:47:50.980Z,102529.25
2023-05-29T14:50:22.465Z,102541.22
2023-05-29T14:52:51.260Z,102539.50
2023-05-29T14:55:19.944Z,102534.88
2023-05-29T15:02:42.317Z,102542.44
2023-05-29T15:05:11.402Z,102540.03
2023-05-29T15:07:40.102Z,102547.53
2023-05-29T15:10:09.185Z,102551.09
2023-05-29T15:12:37.980Z,102547.53
2023-05-29T15:15:08.169Z,102546.25
2023-05-29T15:17:37.761Z,102545.94
2023-05-29T15:20:10.949Z,102548.69
2023-05-29T15:22:39.721Z,102537.22
2023-05-29T15:25:09.083Z,102536.72
2023-05-29T15:27:37.886Z,102539.97
2023-05-29T15:30:14.437Z,102535.50
2023-05-29T15:32:44.573Z,102532.63
2023-05-29T15:35:17.011Z,102542.56
2023-05-29T15:37:48.121Z,102534.34
2023-05-29T15:40:19.221Z,102536.88
2023-05-29T15:42:47.904Z,102529.66
2023-05-29T15:45:16.552Z,102526.53
2023-05-29T15:47:45.375Z,102531.75
2023-05-29T15:50:15.445Z,102534.28
2023-05-29T15:52:54.361Z,102530.47
2023-05-29T15:55:25.155Z,102521.69
2023-05-29T15:57:54.125Z,102530.81
2023-05-29T16:00:23.054Z,102523.97
2023-05-29T16:02:52.207Z,102526.44
2023-05-29T16:05:22.412Z,102525.13
2023-05-29T16:07:51.900Z,102524.50
2023-05-29T16:10:20.758Z,102518.94
2023-05-29T16:12:52.880Z,102517.44
2023-05-29T16:15:21.904Z,102521.53
2023-05-29T16:17:50.928Z,102494.25
2023-05-29T16:20:26.015Z,102520.34
2023-05-29T16:22:54.825Z,102536.81
2023-05-29T16:25:24.140Z,102527.47
2023-05-29T16:32:45.849Z,102517.84
2023-05-29T16:35:15.119Z,102509.75
2023-05-29T16:37:45.645Z,102526.00
2023-05-29T16:40:14.835Z,102505.47
2023-05-29T16:42:46.012Z,102537.69
2023-05-29T16:45:14.921Z,102529.78
2023-05-29T16:47:46.319Z,102541.94
2023-05-29T16:50:15.467Z,102538.63
2023-05-29T16:52:47.414Z,102528.09
2023-05-29T16:55:16.357Z,102539.59
2023-05-29T16:57:45.199Z,102537.47
2023-05-29T17:00:14.828Z,102540.53
2023-05-29T17:02:43.721Z,102533.97
2023-05-29T17:05:13.054Z,102531.41
2023-05-29T17:07:42.206Z,102538.75
2023-05-29T17:10:13.793Z,102540.72
2023-05-29T17:12:44.366Z,102540.34
2023-05-29T17:15:13.176Z,102542.06
2023-05-29T17:17:44.214Z,102544.97
2023-05-29T17:20:15.667Z,102546.38
2023-05-29T17:22:44.551Z,102547.53
2023-05-29T17:25:14.629Z,102472.44
2023-05-29T17:27:43.348Z,102546.34
2023-05-29T17:30:13.204Z,102553.28
2023-05-29T17:32:44.383Z,102564.47
2023-05-29T17:35:14.396Z,102559.81
2023-05-29T17:37:43.158Z,102570.81
2023-05-29T17:40:14.604Z,102557.69
2023-05-29T17:42:47.093Z,102566.63
2023-05-29T17:45:16.107Z,102575.63
2023-05-29T17:47:44.824Z,102574.66
2023-05-29T17:50:14.031Z,102569.41
2023-05-29T17:52:42.779Z,102562.81
2023-05-29T17:55:11.908Z,102569.75
2023-05-29T17:57:42.025Z,102571.63
2023-05-29T18:00:14.741Z,102578.00
2023-05-29T18:02:46.516Z,102570.53
2023-05-29T18:05:15.426Z,102575.06
2023-05-29T18:07:44.204Z,102579.47
2023-05-29T18:10:12.975Z,102570.22
2023-05-29T18:12:46.092Z,102571.00
2023-05-29T18:15:15.605Z,102570.72
2023-05-29T18:19:18.342Z,102566.13
2023-05-29T18:22:50.810Z,102535.72
2023-05-29T18:25:19.722Z,102568.59
2023-05-29T18:27:51.154Z,102569.88
2023-05-29T18:30:20.039Z,102577.13
2023-05-29T18:32:48.770Z,102604.72
2023-05-29T18:35:18.071Z,102570.72
2023-05-29T18:37:46.911Z,102552.88
2023-05-29T18:40:16.122Z,102579.59
2023-05-29T18:42:44.983Z,102579.06
2023-05-29T18:45:17.623Z,102571.81
2023-05-29T18:47:49.016Z,102574.19
2023-05-29T18:50:17.883Z,102572.06
2023-05-29T18:57:41.617Z,102550.13
2023-05-29T19:00:11.663Z,102579.13
2023-05-29T19:02:42.234Z,102577.41
2023-05-29T19:05:11.649Z,102582.22
2023-05-29T19:29:20.944Z,102588.50
2023-05-29T19:31:50.070Z,102587.94
2023-05-29T19:34:19.115Z,102597.00
2023-05-29T19:36:47.816Z,102567.81
2023-05-29T19:39:19.540Z,102580.56
2023-05-29T19:41:48.235Z,102591.50
2023-05-29T19:44:16.949Z,102589.97
2023-05-29T19:46:50.928Z,102591.78
2023-05-29T19:49:20.756Z,102591.97
2023-05-29T19:51:52.804Z,102597.97
2023-05-29T19:54:21.561Z,102602.22
2023-05-29T19:56:50.401Z,102555.31
2023-05-29T19:59:21.773Z,102528.22
2023-05-29T20:01:51.908Z,102517.38
2023-05-29T20:04:20.780Z,102572.19
2023-05-29T20:07:00.046Z,102614.00
2023-05-29T20:09:46.181Z,102609.81
2023-05-29T20:12:17.554Z,102614.59
2023-05-29T20:14:49.406Z,102600.53
2023-05-29T20:17:23.805Z,102611.94
2023-05-29T20:19:56.398Z,102609.97
2023-05-29T20:22:26.176Z,102621.88
2023-05-29T20:24:59.036Z,102622.53
2023-05-29T20:27:32.926Z,102629.00
2023-05-29T20:30:27.586Z,102624.75
2023-05-29T20:33:00.988Z,102627.09
2023-05-29T20:35:36.959Z,102629.09
2023-05-29T20:38:18.002Z,102635.88
2023-05-29T20:41:08.078Z,102633.03
2023-05-29T20:43:38.745Z,102624.25
2023-05-29T20:55:42.498Z,102630.94
2023-05-29T20:58:16.980Z,102638.31
2023-05-29T21:00:55.674Z,102635.59
2023-05-29T21:03:25.858Z,102638.22
2023-05-29T21:05:57.664Z,102632.81
2023-05-29T21:08:30.724Z,102628.91
2023-05-29T21:11:01.342Z,102628.13
2023-05-29T21:13:33.012Z,102634.09
2023-05-29T21:16:04.597Z,102632.13
2023-05-29T21:18:35.968Z,102633.06
2023-05-29T21:21:04.954Z,102635.59
2023-05-29T21:23:36.238Z,102629.69
2023-05-29T21:26:06.435Z,102627.78
2023-05-29T21:28:38.618Z,102632.22
2023-05-29T21:31:13.542Z,102628.03
2023-05-29T21:33:48.918Z,102629.59
2023-05-29T21:36:26.945Z,102595.56
2023-05-29T21:38:58.493Z,102628.03
2023-05-29T21:41:53.377Z,102635.91
2023-05-29T21:44:34.475Z,102634.25
2023-05-29T21:47:10.275Z,102629.81
2023-05-29T21:49:51.081Z,102643.34
2023-05-29T21:52:20.135Z,102638.22
2023-05-29T21:55:00.537Z,102645.31
2023-05-29T21:57:33.529Z,102650.31
2023-05-29T22:00:04.768Z,102648.63
2023-05-29T22:02:34.282Z,102652.97
2023-05-29T22:05:14.220Z,102648.53
2023-05-29T22:07:53.241Z,102624.81
2023-05-29T22:10:29.061Z,102648.84
2023-05-29T22:13:04.777Z,102649.34
2023-05-29T22:15:45.240Z,102644.66
2023-05-29T22:18:15.887Z,102657.41
2023-05-29T22:20:49.750Z,102648.25
2023-05-29T22:23:20.205Z,102655.00
2023-05-29T22:26:04.130Z,102650.16
2023-05-29T22:28:42.648Z,102653.00
2023-05-29T22:31:11.591Z,102651.94
2023-05-29T22:33:43.182Z,102645.72
2023-05-29T22:36:17.817Z,102660.69
2023-05-29T22:38:48.109Z,102665.97
2023-05-29T22:41:16.942Z,102661.91
2023-05-29T22:43:52.558Z,102659.16
2023-05-29T22:46:27.350Z,102650.25
2023-05-29T22:49:08.454Z,102651.00
2023-05-29T22:51:38.430Z,102647.75
2023-05-29T22:54:21.553Z,102647.88
2023-05-29T22:56:53.792Z,102653.06
2023-05-29T22:59:29.924Z,102658.56
2023-05-29T23:02:02.540Z,102656.69
2023-05-29T23:04:32.826Z,102652.72
2023-05-29T23:07:04.452Z,102656.00
2023-05-29T23:09:35.213Z,102661.22
2023-05-29T23:12:06.148Z,102647.59
2023-05-29T23:14:45.281Z,102660.16
2023-05-29T23:17:20.203Z,102654.94
2023-05-29T23:22:38.847Z,102673.38
2023-05-29T23:25:11.465Z,102666.25
2023-05-29T23:27:43.466Z,102671.53
2023-05-29T23:30:14.033Z,102661.22
2023-05-29T23:32:59.423Z,102661.75
2023-05-29T23:35:30.163Z,102658.34
2023-05-29T23:38:06.868Z,102658.41
2023-05-29T23:40:40.969Z,102658.22
2023-05-29T23:43:17.255Z,102667.91
2023-05-29T23:46:07.238Z,102663.88
2023-05-29T23:48:41.995Z,102669.84
2023-05-29T23:51:16.231Z,102670.72
2023-05-29T23:53:44.975Z,102686.34
2023-05-29T23:56:16.993Z,102672.47
2023-05-29T23:58:45.888Z,102666.50
